sensor_id;sensor_type;location;lat;lon;timestamp;pressure;altitude;pressure_sealevel;temperature;humidity
46223;BME280;31943;51.410;7.564;2023-04-27T00:00:58;100636.34;;;7.18;59.15
46223;BME280;31943;51.410;7.564;2023-04-27T00:03:23;100633.56;;;7.12;58.68
46223;BME280;31943;51.410;7.564;2023-04-27T00:05:49;100636.91;;;7.08;58.70
46223;BME280;31943;51.410;7.564;2023-04-27T00:08:14;100635.88;;;7.03;58.64
46223;BME280;31943;51.410;7.564;2023-04-27T00:10:41;100634.88;;;6.99;58.94
46223;BME280;31943;51.410;7.564;2023-04-27T00:13:07;100640.75;;;6.92;58.82
46223;BME280;31943;51.410;7.564;2023-04-27T00:15:33;100637.97;;;6.87;58.67
46223;BME280;31943;51.410;7.564;2023-04-27T00:17:58;100634.38;;;6.82;58.58
46223;BME280;31943;51.410;7.564;2023-04-27T00:20:24;100637.69;;;6.78;58.92
46223;BME280;31943;51.410;7.564;2023-04-27T00:22:49;100642.66;;;6.70;58.51
46223;BME280;31943;51.410;7.564;2023-04-27T00:25:15;100638.91;;;6.62;58.36
46223;BME280;31943;51.410;7.564;2023-04-27T00:27:42;100641.31;;;6.56;58.25
46223;BME280;31943;51.410;7.564;2023-04-27T00:30:09;100644.63;;;6.52;58.36
46223;BME280;31943;51.410;7.564;2023-04-27T00:32:35;100647.16;;;6.49;58.30
46223;BME280;31943;51.410;7.564;2023-04-27T00:35:01;100636.56;;;6.43;58.35
46223;BME280;31943;51.410;7.564;2023-04-27T00:37:26;100640.59;;;6.34;58.33
46223;BME280;31943;51.410;7.564;2023-04-27T00:39:52;100636.06;;;6.27;58.55
46223;BME280;31943;51.410;7.564;2023-04-27T00:42:17;100639.34;;;6.22;58.16
46223;BME280;31943;51.410;7.564;2023-04-27T00:44:44;100640.00;;;6.16;58.28
46223;BME280;31943;51.410;7.564;2023-04-27T00:47:10;100644.13;;;6.11;58.32
46223;BME280;31943;51.410;7.564;2023-04-27T00:49:36;100650.88;;;6.06;58.45
46223;BME280;31943;51.410;7.564;2023-04-27T00:52:02;100650.69;;;6.01;58.27
46223;BME280;31943;51.410;7.564;2023-04-27T00:54:28;100651.38;;;5.96;58.29
46223;BME280;31943;51.410;7.564;2023-04-27T00:56:54;100655.50;;;5.90;58.33
46223;BME280;31943;51.410;7.564;2023-04-27T00:59:19;100653.63;;;5.86;58.39
46223;BME280;31943;51.410;7.564;2023-04-27T01:01:46;100660.41;;;5.83;58.55
46223;BME280;31943;51.410;7.564;2023-04-27T01:04:12;100662.91;;;5.81;58.67
46223;BME280;31943;51.410;7.564;2023-04-27T01:06:38;100655.94;;;5.79;58.44
46223;BME280;31943;51.410;7.564;2023-04-27T01:09:03;100671.34;;;5.75;58.44
46223;BME280;31943;51.410;7.564;2023-04-27T01:11:29;100665.16;;;5.72;58.46
46223;BME280;31943;51.410;7.564;2023-04-27T01:13:55;100665.88;;;5.68;58.45
46223;BME280;31943;51.410;7.564;2023-04-27T01:16:21;100669.25;;;5.65;58.56
46223;BME280;31943;51.410;7.564;2023-04-27T01:18:48;100673.44;;;5.62;58.50
46223;BME280;31943;51.410;7.564;2023-04-27T01:21:13;100675.94;;;5.59;58.50
46223;BME280;31943;51.410;7.564;2023-04-27T01:23:40;100674.03;;;5.54;58.72
46223;BME280;31943;51.410;7.564;2023-04-27T01:26:06;100673.00;;;5.49;58.62
46223;BME280;31943;51.410;7.564;2023-04-27T01:28:31;100665.88;;;5.44;58.76
46223;BME280;31943;51.410;7.564;2023-04-27T01:30:57;100672.47;;;5.35;58.60
46223;BME280;31943;51.410;7.564;2023-04-27T01:33:23;100675.78;;;5.31;58.89
46223;BME280;31943;51.410;7.564;2023-04-27T01:35:48;100673.94;;;5.29;58.94
46223;BME280;31943;51.410;7.564;2023-04-27T01:38:14;100682.63;;;5.31;58.91
46223;BME280;31943;51.410;7.564;2023-04-27T01:40:41;100683.47;;;5.30;58.82
46223;BME280;31943;51.410;7.564;2023-04-27T01:43:07;100678.16;;;5.27;58.84
46223;BME280;31943;51.410;7.564;2023-04-27T01:45:32;100679.75;;;5.23;58.79
46223;BME280;31943;51.410;7.564;2023-04-27T01:47:58;100677.13;;;5.22;58.92
46223;BME280;31943;51.410;7.564;2023-04-27T01:50:24;100684.75;;;5.19;59.05
46223;BME280;31943;51.410;7.564;2023-04-27T01:52:49;100677.78;;;5.16;58.91
46223;BME280;31943;51.410;7.564;2023-04-27T01:55:15;100684.59;;;5.14;59.07
46223;BME280;31943;51.410;7.564;2023-04-27T01:57:43;100692.22;;;5.11;59.07
46223;BME280;31943;51.410;7.564;2023-04-27T02:00:09;100692.13;;;5.08;59.23
46223;BME280;31943;51.410;7.564;2023-04-27T02:02:35;100693.75;;;5.06;59.12
46223;BME280;31943;51.410;7.564;2023-04-27T02:05:01;100695.41;;;5.04;59.10
46223;BME280;31943;51.410;7.564;2023-04-27T02:07:26;100691.03;;;5.03;59.11
46223;BME280;31943;51.410;7.564;2023-04-27T02:09:52;100694.34;;;4.99;59.10
46223;BME280;31943;51.410;7.564;2023-04-27T02:12:18;100701.09;;;4.95;58.92
46223;BME280;31943;51.410;7.564;2023-04-27T02:14:48;100701.78;;;4.91;59.05
46223;BME280;31943;51.410;7.564;2023-04-27T02:17:13;100713.69;;;4.87;59.06
46223;BME280;31943;51.410;7.564;2023-04-27T02:19:39;100708.47;;;4.86;59.06
46223;BME280;31943;51.410;7.564;2023-04-27T02:22:05;100713.53;;;4.83;59.10
46223;BME280;31943;51.410;7.564;2023-04-27T02:24:31;100710.72;;;4.78;59.06
46223;BME280;31943;51.410;7.564;2023-04-27T02:26:57;100709.78;;;4.76;59.39
46223;BME280;31943;51.410;7.564;2023-04-27T02:29:22;100707.09;;;4.73;59.28
46223;BME280;31943;51.410;7.564;2023-04-27T02:31:59;100708.66;;;4.69;59.15
46223;BME280;31943;51.410;7.564;2023-04-27T02:34:25;100711.88;;;4.64;59.26
46223;BME280;31943;51.410;7.564;2023-04-27T02:36:51;100705.69;;;4.60;59.54
46223;BME280;31943;51.410;7.564;2023-04-27T02:39:17;100691.81;;;4.58;59.42
46223;BME280;31943;51.410;7.564;2023-04-27T02:41:42;100691.66;;;4.53;59.48
46223;BME280;31943;51.410;7.564;2023-04-27T02:44:08;100701.16;;;4.54;59.44
46223;BME280;31943;51.410;7.564;2023-04-27T02:46:33;100694.16;;;4.52;59.36
46223;BME280;31943;51.410;7.564;2023-04-27T02:49:00;100695.88;;;4.51;59.69
46223;BME280;31943;51.410;7.564;2023-04-27T02:51:25;100693.22;;;4.50;59.69
46223;BME280;31943;51.410;7.564;2023-04-27T02:53:51;100694.06;;;4.49;59.71
46223;BME280;31943;51.410;7.564;2023-04-27T02:56:20;100695.66;;;4.47;59.61
46223;BME280;31943;51.410;7.564;2023-04-27T02:58:45;100692.28;;;4.48;59.76
46223;BME280;31943;51.410;7.564;2023-04-27T03:01:11;100692.19;;;4.46;59.68
46223;BME280;31943;51.410;7.564;2023-04-27T03:03:36;100690.31;;;4.42;59.83
46223;BME280;31943;51.410;7.564;2023-04-27T03:06:04;100693.66;;;4.40;59.61
46223;BME280;31943;51.410;7.564;2023-04-27T03:08:29;100691.00;;;4.38;59.86
46223;BME280;31943;51.410;7.564;2023-04-27T03:10:55;100689.22;;;4.37;60.10
46223;BME280;31943;51.410;7.564;2023-04-27T03:13:21;100690.06;;;4.36;59.81
46223;BME280;31943;51.410;7.564;2023-04-27T03:15:46;100688.09;;;4.30;59.76
46223;BME280;31943;51.410;7.564;2023-04-27T03:18:13;100685.50;;;4.30;60.02
46223;BME280;31943;51.410;7.564;2023-04-27T03:20:38;100684.63;;;4.30;59.99
46223;BME280;31943;51.410;7.564;2023-04-27T03:23:05;100673.44;;;4.29;60.00
46223;BME280;31943;51.410;7.564;2023-04-27T03:25:31;100675.88;;;4.26;59.79
46223;BME280;31943;51.410;7.564;2023-04-27T03:27:56;100675.72;;;4.23;59.83
46223;BME280;31943;51.410;7.564;2023-04-27T03:30:22;100675.53;;;4.19;59.70
46223;BME280;31943;51.410;7.564;2023-04-27T03:32:48;100674.59;;;4.16;59.79
46223;BME280;31943;51.410;7.564;2023-04-27T03:35:13;100671.81;;;4.12;59.76
46223;BME280;31943;51.410;7.564;2023-04-27T03:37:39;100674.25;;;4.09;59.74
46223;BME280;31943;51.410;7.564;2023-04-27T03:40:08;100676.72;;;4.06;59.93
46223;BME280;31943;51.410;7.564;2023-04-27T03:42:34;100680.19;;;4.06;59.74
46223;BME280;31943;51.410;7.564;2023-04-27T03:44:59;100681.94;;;4.07;60.00
46223;BME280;31943;51.410;7.564;2023-04-27T03:47:25;100686.16;;;4.05;60.08
46223;BME280;31943;51.410;7.564;2023-04-27T03:49:51;100686.22;;;4.07;60.16
46223;BME280;31943;51.410;7.564;2023-04-27T03:52:17;100689.56;;;4.04;60.25
46223;BME280;31943;51.410;7.564;2023-04-27T03:54:42;100699.06;;;4.05;60.16
46223;BME280;31943;51.410;7.564;2023-04-27T03:57:09;100702.47;;;4.04;60.14
46223;BME280;31943;51.410;7.564;2023-04-27T03:59:35;100698.97;;;4.02;60.09
46223;BME280;31943;51.410;7.564;2023-04-27T04:02:01;100698.81;;;3.99;60.16
46223;BME280;31943;51.410;7.564;2023-04-27T04:04:26;100703.84;;;3.96;60.10
46223;BME280;31943;51.410;7.564;2023-04-27T04:06:52;100711.59;;;3.96;60.27
46223;BME280;31943;51.410;7.564;2023-04-27T04:09:20;100701.28;;;3.96;60.31
46223;BME280;31943;51.410;7.564;2023-04-27T04:11:46;100695.97;;;3.93;59.96
46223;BME280;31943;51.410;7.564;2023-04-27T04:14:13;100702.84;;;3.92;60.31
46223;BME280;31943;51.410;7.564;2023-04-27T04:16:39;100707.91;;;3.91;60.50
46223;BME280;31943;51.410;7.564;2023-04-27T04:19:04;100707.84;;;3.89;60.27
46223;BME280;31943;51.410;7.564;2023-04-27T04:21:30;100712.13;;;3.89;60.42
46223;BME280;31943;51.410;7.564;2023-04-27T04:23:57;100709.63;;;3.90;60.48
46223;BME280;31943;51.410;7.564;2023-04-27T04:26:23;100709.63;;;3.90;60.45
46223;BME280;31943;51.410;7.564;2023-04-27T04:28:48;100718.25;;;3.91;60.39
46223;BME280;31943;51.410;7.564;2023-04-27T04:31:16;100723.34;;;3.89;60.59
46223;BME280;31943;51.410;7.564;2023-04-27T04:33:41;100724.16;;;3.88;60.29
46223;BME280;31943;51.410;7.564;2023-04-27T04:36:07;100726.59;;;3.85;60.48
46223;BME280;31943;51.410;7.564;2023-04-27T04:38:33;100727.34;;;3.83;60.53
46223;BME280;31943;51.410;7.564;2023-04-27T04:40:59;100730.81;;;3.83;60.44
46223;BME280;31943;51.410;7.564;2023-04-27T04:43:25;100725.66;;;3.83;60.89
46223;BME280;31943;51.410;7.564;2023-04-27T04:45:51;100732.72;;;3.87;60.50
46223;BME280;31943;51.410;7.564;2023-04-27T04:48:19;100731.84;;;3.87;60.62
46223;BME280;31943;51.410;7.564;2023-04-27T04:50:45;100733.59;;;3.88;60.67
46223;BME280;31943;51.410;7.564;2023-04-27T04:53:10;100722.38;;;3.87;60.65
46223;BME280;31943;51.410;7.564;2023-04-27T04:55:39;100722.53;;;3.90;60.79
46223;BME280;31943;51.410;7.564;2023-04-27T04:58:08;100725.31;;;3.95;61.00
46223;BME280;31943;51.410;7.564;2023-04-27T05:00:59;100717.75;;;4.00;60.97
46223;BME280;31943;51.410;7.564;2023-04-27T05:03:29;100716.97;;;4.01;60.88
46223;BME280;31943;51.410;7.564;2023-04-27T05:06:00;100720.56;;;4.04;61.09
46223;BME280;31943;51.410;7.564;2023-04-27T05:08:27;100723.22;;;4.06;61.13
46223;BME280;31943;51.410;7.564;2023-04-27T05:10:53;100719.81;;;4.07;61.07
46223;BME280;31943;51.410;7.564;2023-04-27T05:13:19;100728.50;;;4.09;61.00
46223;BME280;31943;51.410;7.564;2023-04-27T05:15:45;100722.56;;;4.11;61.16
46223;BME280;31943;51.410;7.564;2023-04-27T05:18:11;100723.53;;;4.13;61.06
46223;BME280;31943;51.410;7.564;2023-04-27T05:20:38;100728.03;;;4.18;61.20
46223;BME280;31943;51.410;7.564;2023-04-27T05:23:04;100732.28;;;4.17;61.19
46223;BME280;31943;51.410;7.564;2023-04-27T05:25:30;100740.19;;;4.20;61.38
46223;BME280;31943;51.410;7.564;2023-04-27T05:27:56;100732.56;;;4.23;61.36
46223;BME280;31943;51.410;7.564;2023-04-27T05:30:22;100730.25;;;4.29;61.25
46223;BME280;31943;51.410;7.564;2023-04-27T05:32:47;100734.75;;;4.33;61.26
46223;BME280;31943;51.410;7.564;2023-04-27T05:35:13;100739.28;;;4.39;61.30
46223;BME280;31943;51.410;7.564;2023-04-27T05:37:40;100742.88;;;4.43;61.33
46223;BME280;31943;51.410;7.564;2023-04-27T05:40:07;100743.09;;;4.47;61.22
46223;BME280;31943;51.410;7.564;2023-04-27T05:42:33;100745.09;;;4.54;61.30
46223;BME280;31943;51.410;7.564;2023-04-27T05:44:58;100742.72;;;4.59;61.46
46223;BME280;31943;51.410;7.564;2023-04-27T05:47:24;100748.84;;;4.61;61.26
46223;BME280;31943;51.410;7.564;2023-04-27T05:49:50;100760.88;;;4.61;61.37
46223;BME280;31943;51.410;7.564;2023-04-27T05:52:16;100761.81;;;4.63;61.31
46223;BME280;31943;51.410;7.564;2023-04-27T05:54:46;100758.22;;;4.59;61.76
46223;BME280;31943;51.410;7.564;2023-04-27T05:57:12;100770.31;;;4.60;61.74
46223;BME280;31943;51.410;7.564;2023-04-27T05:59:37;100770.47;;;4.63;61.54
46223;BME280;31943;51.410;7.564;2023-04-27T06:02:03;100770.56;;;4.66;61.73
46223;BME280;31943;51.410;7.564;2023-04-27T06:04:29;100768.19;;;4.71;61.58
46223;BME280;31943;51.410;7.564;2023-04-27T06:06:54;100776.13;;;4.75;61.57
46223;BME280;31943;51.410;7.564;2023-04-27T06:09:20;100779.75;;;4.79;61.86
46223;BME280;31943;51.410;7.564;2023-04-27T06:11:50;100776.59;;;4.86;61.57
46223;BME280;31943;51.410;7.564;2023-04-27T06:14:15;100770.03;;;4.94;61.54
46223;BME280;31943;51.410;7.564;2023-04-27T06:16:41;100776.41;;;5.03;61.32
46223;BME280;31943;51.410;7.564;2023-04-27T06:19:07;100778.47;;;5.11;61.27
46223;BME280;31943;51.410;7.564;2023-04-27T06:21:32;100777.91;;;5.19;61.28
46223;BME280;31943;51.410;7.564;2023-04-27T06:23:58;100775.69;;;5.28;61.22
46223;BME280;31943;51.410;7.564;2023-04-27T06:26:24;100775.22;;;5.38;61.02
46223;BME280;31943;51.410;7.564;2023-04-27T06:28:51;100776.47;;;5.48;60.99
46223;BME280;31943;51.410;7.564;2023-04-27T06:31:17;100770.94;;;5.61;60.78
46223;BME280;31943;51.410;7.564;2023-04-27T06:33:42;100773.91;;;5.70;60.95
46223;BME280;31943;51.410;7.564;2023-04-27T06:36:08;100774.50;;;5.87;60.64
46223;BME280;31943;51.410;7.564;2023-04-27T06:38:34;100777.28;;;5.92;60.62
46223;BME280;31943;51.410;7.564;2023-04-27T06:40:59;100774.41;;;6.07;60.82
46223;BME280;31943;51.410;7.564;2023-04-27T06:43:25;100768.00;;;6.21;60.93
46223;BME280;31943;51.410;7.564;2023-04-27T06:45:52;100771.00;;;6.32;60.89
46223;BME280;31943;51.410;7.564;2023-04-27T06:48:18;100772.25;;;6.43;60.71
46223;BME280;31943;51.410;7.564;2023-04-27T06:50:44;100767.44;;;6.54;60.28
46223;BME280;31943;51.410;7.564;2023-04-27T06:53:09;100764.59;;;6.72;59.24
46223;BME280;31943;51.410;7.564;2023-04-27T06:55:35;100762.63;;;6.90;58.41
46223;BME280;31943;51.410;7.564;2023-04-27T06:58:01;100757.09;;;7.07;56.95
46223;BME280;31943;51.410;7.564;2023-04-27T07:00:27;100754.19;;;7.25;56.03
46223;BME280;31943;51.410;7.564;2023-04-27T07:02:54;100755.53;;;7.39;54.92
46223;BME280;31943;51.410;7.564;2023-04-27T07:05:20;100748.19;;;7.55;55.01
46223;BME280;31943;51.410;7.564;2023-04-27T07:07:45;100753.09;;;7.74;54.52
46223;BME280;31943;51.410;7.564;2023-04-27T07:10:11;100748.28;;;7.86;53.53
46223;BME280;31943;51.410;7.564;2023-04-27T07:12:37;100744.41;;;8.02;53.48
46223;BME280;31943;51.410;7.564;2023-04-27T07:15:03;100746.56;;;8.19;53.41
46223;BME280;31943;51.410;7.564;2023-04-27T07:17:29;100746.75;;;8.25;52.54
46223;BME280;31943;51.410;7.564;2023-04-27T07:19:57;100747.09;;;8.39;52.48
46223;BME280;31943;51.410;7.564;2023-04-27T07:22:23;100743.97;;;8.49;51.41
46223;BME280;31943;51.410;7.564;2023-04-27T07:24:48;100740.81;;;8.62;50.99
46223;BME280;31943;51.410;7.564;2023-04-27T07:27:14;100749.94;;;8.78;51.15
46223;BME280;31943;51.410;7.564;2023-04-27T07:29:40;100744.25;;;8.95;51.02
46223;BME280;31943;51.410;7.564;2023-04-27T07:32:06;100735.97;;;9.11;50.67
46223;BME280;31943;51.410;7.564;2023-04-27T07:34:32;100738.94;;;9.26;50.16
46223;BME280;31943;51.410;7.564;2023-04-27T07:36:59;100736.53;;;9.36;49.41
46223;BME280;31943;51.410;7.564;2023-04-27T07:39:26;100738.44;;;9.43;49.43
46223;BME280;31943;51.410;7.564;2023-04-27T07:41:51;100743.94;;;9.55;49.30
46223;BME280;31943;51.410;7.564;2023-04-27T07:44:17;100744.38;;;9.77;48.89
46223;BME280;31943;51.410;7.564;2023-04-27T07:46:43;100736.16;;;9.99;48.32
46223;BME280;31943;51.410;7.564;2023-04-27T07:49:08;100735.59;;;10.14;48.24
46223;BME280;31943;51.410;7.564;2023-04-27T07:51:34;100735.97;;;10.33;47.48
46223;BME280;31943;51.410;7.564;2023-04-27T07:54:01;100733.47;;;10.37;47.27
46223;BME280;31943;51.410;7.564;2023-04-27T07:56:27;100737.25;;;10.55;47.44
46223;BME280;31943;51.410;7.564;2023-04-27T07:58:52;100730.47;;;10.64;46.91
46223;BME280;31943;51.410;7.564;2023-04-27T08:01:18;100738.31;;;10.66;45.64
46223;BME280;31943;51.410;7.564;2023-04-27T08:03:44;100737.34;;;10.61;45.81
46223;BME280;31943;51.410;7.564;2023-04-27T08:06:09;100734.03;;;10.69;45.99
46223;BME280;31943;51.410;7.564;2023-04-27T08:08:35;100739.44;;;10.80;45.42
46223;BME280;31943;51.410;7.564;2023-04-27T08:11:02;100736.13;;;10.91;44.18
46223;BME280;31943;51.410;7.564;2023-04-27T08:13:28;100740.66;;;11.02;44.18
46223;BME280;31943;51.410;7.564;2023-04-27T08:15:53;100743.53;;;11.18;43.45
46223;BME280;31943;51.410;7.564;2023-04-27T08:18:19;100744.34;;;11.14;43.01
46223;BME280;31943;51.410;7.564;2023-04-27T08:20:44;100734.72;;;11.13;43.64
46223;BME280;31943;51.410;7.564;2023-04-27T08:23:10;100738.28;;;11.18;43.69
46223;BME280;31943;51.410;7.564;2023-04-27T08:25:36;100731.59;;;11.35;44.00
46223;BME280;31943;51.410;7.564;2023-04-27T08:28:03;100743.09;;;11.48;44.33
46223;BME280;31943;51.410;7.564;2023-04-27T08:30:29;100736.31;;;11.64;44.43
46223;BME280;31943;51.410;7.564;2023-04-27T08:32:54;100733.09;;;11.82;44.05
46223;BME280;31943;51.410;7.564;2023-04-27T08:35:20;100735.03;;;11.95;43.74
46223;BME280;31943;51.410;7.564;2023-04-27T08:37:45;100730.72;;;11.99;42.51
46223;BME280;31943;51.410;7.564;2023-04-27T08:40:11;100728.97;;;11.99;42.00
46223;BME280;31943;51.410;7.564;2023-04-27T08:42:37;100728.09;;;11.99;41.56
46223;BME280;31943;51.410;7.564;2023-04-27T08:45:08;100728.16;;;12.05;41.31
46223;BME280;31943;51.410;7.564;2023-04-27T08:47:34;100721.41;;;12.24;41.66
46223;BME280;31943;51.410;7.564;2023-04-27T08:49:59;100712.69;;;12.26;40.72
46223;BME280;31943;51.410;7.564;2023-04-27T08:52:25;100712.69;;;12.23;41.33
46223;BME280;31943;51.410;7.564;2023-04-27T08:54:52;100708.44;;;12.36;40.89
46223;BME280;31943;51.410;7.564;2023-04-27T08:57:18;100718.13;;;12.45;40.90
46223;BME280;31943;51.410;7.564;2023-04-27T08:59:44;100718.19;;;12.51;41.01
46223;BME280;31943;51.410;7.564;2023-04-27T09:02:19;100715.59;;;12.53;40.85
46223;BME280;31943;51.410;7.564;2023-04-27T09:04:44;100716.56;;;12.62;40.68
46223;BME280;31943;51.410;7.564;2023-04-27T09:07:11;100723.56;;;12.68;38.87
46223;BME280;31943;51.410;7.564;2023-04-27T09:09:48;100720.94;;;12.68;39.55
46223;BME280;31943;51.410;7.564;2023-04-27T09:12:15;100715.84;;;12.80;39.84
46223;BME280;31943;51.410;7.564;2023-04-27T09:14:41;100715.09;;;12.94;39.35
46223;BME280;31943;51.410;7.564;2023-04-27T09:17:15;100707.16;;;12.89;38.63
46223;BME280;31943;51.410;7.564;2023-04-27T09:19:43;100709.03;;;13.07;39.13
46223;BME280;31943;51.410;7.564;2023-04-27T09:22:10;100705.69;;;13.23;38.46
46223;BME280;31943;51.410;7.564;2023-04-27T09:24:37;100716.28;;;13.40;39.07
46223;BME280;31943;51.410;7.564;2023-04-27T09:27:05;100712.84;;;13.49;38.72
46223;BME280;31943;51.410;7.564;2023-04-27T09:29:35;100706.78;;;13.64;37.85
46223;BME280;31943;51.410;7.564;2023-04-27T09:32:01;100698.13;;;13.77;38.12
46223;BME280;31943;51.410;7.564;2023-04-27T09:34:37;100692.00;;;13.75;37.58
46223;BME280;31943;51.410;7.564;2023-04-27T09:37:07;100686.63;;;13.48;37.07
46223;BME280;31943;51.410;7.564;2023-04-27T09:39:35;100687.50;;;13.45;38.18
46223;BME280;31943;51.410;7.564;2023-04-27T09:42:01;100675.34;;;13.62;37.79
46223;BME280;31943;51.410;7.564;2023-04-27T09:44:27;100679.75;;;13.68;38.10
46223;BME280;31943;51.410;7.564;2023-04-27T09:46:56;100671.00;;;13.71;37.57
46223;BME280;31943;51.410;7.564;2023-04-27T09:49:22;100670.13;;;13.78;37.24
46223;BME280;31943;51.410;7.564;2023-04-27T09:51:49;100671.88;;;13.76;37.61
46223;BME280;31943;51.410;7.564;2023-04-27T09:54:16;100673.66;;;13.81;36.77
46223;BME280;31943;51.410;7.564;2023-04-27T09:56:53;100668.44;;;13.89;36.87
46223;BME280;31943;51.410;7.564;2023-04-27T09:59:34;100664.97;;;13.98;36.19
46223;BME280;31943;51.410;7.564;2023-04-27T10:02:03;100658.81;;;13.97;35.91
46223;BME280;31943;51.410;7.564;2023-04-27T10:04:43;100666.75;;;14.13;35.99
46223;BME280;31943;51.410;7.564;2023-04-27T10:07:12;100662.38;;;14.16;35.63
46223;BME280;31943;51.410;7.564;2023-04-27T10:09:41;100665.00;;;14.18;34.32
46223;BME280;31943;51.410;7.564;2023-04-27T10:12:15;100663.25;;;14.24;36.13
46223;BME280;31943;51.410;7.564;2023-04-27T10:14:50;100662.41;;;14.32;34.21
46223;BME280;31943;51.410;7.564;2023-04-27T10:17:16;100669.41;;;14.42;34.99
46223;BME280;31943;51.410;7.564;2023-04-27T10:19:52;100666.78;;;14.54;35.57
46223;BME280;31943;51.410;7.564;2023-04-27T10:22:18;100665.09;;;14.62;35.38
46223;BME280;31943;51.410;7.564;2023-04-27T10:24:48;100655.47;;;14.65;34.63
46223;BME280;31943;51.410;7.564;2023-04-27T10:27:16;100657.19;;;14.72;34.17
46223;BME280;31943;51.410;7.564;2023-04-27T10:29:44;100649.28;;;14.53;33.14
46223;BME280;31943;51.410;7.564;2023-04-27T10:32:11;100644.03;;;14.44;34.63
46223;BME280;31943;51.410;7.564;2023-04-27T10:34:38;100640.53;;;14.54;33.86
46223;BME280;31943;51.410;7.564;2023-04-27T10:37:07;100636.22;;;14.56;35.30
46223;BME280;31943;51.410;7.564;2023-04-27T10:39:36;100640.56;;;14.63;35.96
46223;BME280;31943;51.410;7.564;2023-04-27T10:42:05;100636.16;;;14.55;33.72
46223;BME280;31943;51.410;7.564;2023-04-27T10:44:31;100630.03;;;14.31;33.97
46223;BME280;31943;51.410;7.564;2023-04-27T10:47:00;100635.28;;;14.28;33.51
46223;BME280;31943;51.410;7.564;2023-04-27T10:49:27;100624.75;;;14.13;33.57
46223;BME280;31943;51.410;7.564;2023-04-27T10:51:56;100626.50;;;14.24;35.25
46223;BME280;31943;51.410;7.564;2023-04-27T10:54:25;100627.41;;;14.39;33.86
46223;BME280;31943;51.410;7.564;2023-04-27T10:56:51;100617.78;;;14.39;33.73
46223;BME280;31943;51.410;7.564;2023-04-27T10:59:18;100618.66;;;14.46;34.34
46223;BME280;31943;51.410;7.564;2023-04-27T11:01:47;100615.16;;;14.55;33.33
46223;BME280;31943;51.410;7.564;2023-04-27T11:04:12;100608.16;;;14.46;32.90
46223;BME280;31943;51.410;7.564;2023-04-27T11:06:42;100608.13;;;14.52;33.61
46223;BME280;31943;51.410;7.564;2023-04-27T11:09:08;100602.94;;;14.63;32.54
46223;BME280;31943;51.410;7.564;2023-04-27T11:11:34;100598.56;;;14.60;32.33
46223;BME280;31943;51.410;7.564;2023-04-27T11:14:00;100598.53;;;14.65;33.65
46223;BME280;31943;51.410;7.564;2023-04-27T11:16:27;100600.28;;;14.86;33.23
46223;BME280;31943;51.410;7.564;2023-04-27T11:18:53;100607.25;;;14.93;33.84
46223;BME280;31943;51.410;7.564;2023-04-27T11:21:19;100601.13;;;15.02;32.63
46223;BME280;31943;51.410;7.564;2023-04-27T11:23:44;100597.56;;;15.14;33.21
46223;BME280;31943;51.410;7.564;2023-04-27T11:26:11;100601.97;;;15.06;32.59
46223;BME280;31943;51.410;7.564;2023-04-27T11:28:37;100599.41;;;14.92;31.80
46223;BME280;31943;51.410;7.564;2023-04-27T11:31:03;100600.28;;;14.71;32.14
46223;BME280;31943;51.410;7.564;2023-04-27T11:33:30;100601.16;;;14.63;32.36
46223;BME280;31943;51.410;7.564;2023-04-27T11:35:56;100597.66;;;14.78;33.74
46223;BME280;31943;51.410;7.564;2023-04-27T11:38:22;100590.63;;;14.83;31.96
46223;BME280;31943;51.410;7.564;2023-04-27T11:40:58;100591.50;;;14.81;31.56
46223;BME280;31943;51.410;7.564;2023-04-27T11:43:25;100597.63;;;14.88;32.14
46223;BME280;31943;51.410;7.564;2023-04-27T11:45:50;100587.13;;;14.94;33.04
46223;BME280;31943;51.410;7.564;2023-04-27T11:48:16;100593.22;;;14.99;33.04
46223;BME280;31943;51.410;7.564;2023-04-27T11:50:46;100596.69;;;15.12;33.08
46223;BME280;31943;51.410;7.564;2023-04-27T11:53:12;100585.25;;;15.31;31.88
46223;BME280;31943;51.410;7.564;2023-04-27T11:55:38;100588.78;;;15.27;31.64
46223;BME280;31943;51.410;7.564;2023-04-27T11:58:04;100594.91;;;15.28;31.76
46223;BME280;31943;51.410;7.564;2023-04-27T12:00:29;100582.66;;;15.13;31.95
46223;BME280;31943;51.410;7.564;2023-04-27T12:02:56;100589.69;;;15.11;31.77
46223;BME280;31943;51.410;7.564;2023-04-27T12:05:22;100590.63;;;14.96;31.72
46223;BME280;31943;51.410;7.564;2023-04-27T12:07:49;100583.59;;;14.95;31.92
46223;BME280;31943;51.410;7.564;2023-04-27T12:10:15;100585.38;;;14.85;32.07
46223;BME280;31943;51.410;7.564;2023-04-27T12:12:40;100585.41;;;14.82;32.30
46223;BME280;31943;51.410;7.564;2023-04-27T12:15:07;100575.75;;;14.82;32.08
46223;BME280;31943;51.410;7.564;2023-04-27T12:17:33;100570.47;;;14.87;31.62
46223;BME280;31943;51.410;7.564;2023-04-27T12:19:59;100574.81;;;15.05;32.32
46223;BME280;31943;51.410;7.564;2023-04-27T12:22:24;100565.03;;;15.36;32.06
46223;BME280;31943;51.410;7.564;2023-04-27T12:24:52;100557.09;;;15.56;31.95
46223;BME280;31943;51.410;7.564;2023-04-27T12:27:17;100560.50;;;15.71;31.67
46223;BME280;31943;51.410;7.564;2023-04-27T12:29:43;100564.78;;;15.90;31.04
46223;BME280;31943;51.410;7.564;2023-04-27T12:32:08;100561.34;;;15.79;31.12
46223;BME280;31943;51.410;7.564;2023-04-27T12:34:34;100560.50;;;15.69;30.86
46223;BME280;31943;51.410;7.564;2023-04-27T12:36:59;100558.75;;;15.68;31.32
46223;BME280;31943;51.410;7.564;2023-04-27T12:39:25;100551.75;;;15.64;30.67
46223;BME280;31943;51.410;7.564;2023-04-27T12:41:53;100552.66;;;15.60;31.52
46223;BME280;31943;51.410;7.564;2023-04-27T12:44:18;100550.06;;;15.57;30.89
46223;BME280;31943;51.410;7.564;2023-04-27T12:46:45;100557.13;;;15.44;31.11
46223;BME280;31943;51.410;7.564;2023-04-27T12:49:11;100558.03;;;15.38;31.01
46223;BME280;31943;51.410;7.564;2023-04-27T12:51:37;100550.09;;;15.46;31.03